Time;durP1;ratioP1;P1;durP2;ratioP2;P2;SDS_P1;SDS_P2;PMS_P1;PMS_P2;Temp;Humidity;BMP_temperature;BMP_pressure;BME280_temperature;BME280_humidity;BME280_pressure;Samples;Min_cycle;Max_cycle;Signal;HPM_P1;HPM_P2
2021/07/24 00:01:13;;;;;;;12.52;5.60;;;29.10;40.90;;;;;;6349646;28;20027;-79
2021/07/24 00:04:14;;;;;;;15.68;6.40;;;29.10;42.40;;;;;;6331418;28;20089;-79
2021/07/24 00:07:15;;;;;;;9.75;5.55;;;29.10;43.20;;;;;;6331870;28;20380;-79
2021/07/24 00:10:16;;;;;;;10.63;5.47;;;29.00;43.50;;;;;;6349784;28;20047;-79
2021/07/24 00:13:18;;;;;;;12.43;5.38;;;29.00;43.50;;;;;;6315246;28;20038;-79
2021/07/24 00:16:19;;;;;;;13.95;5.53;;;29.00;43.60;;;;;;6315315;28;20093;-79
2021/07/24 00:19:20;;;;;;;10.45;5.57;;;29.00;43.80;;;;;;6331522;28;20465;-79
2021/07/24 00:22:21;;;;;;;13.88;6.30;;;29.00;44.10;;;;;;6331175;28;20039;-79
2021/07/24 00:25:22;;;;;;;12.02;5.80;;;29.10;44.30;;;;;;6349244;28;20040;-79
2021/07/24 00:28:23;;;;;;;8.43;4.93;;;29.10;44.00;;;;;;6331496;28;20032;-79
2021/07/24 00:31:24;;;;;;;8.25;4.82;;;29.10;43.40;;;;;;6331592;28;20039;-79
2021/07/24 00:34:30;;;;;;;10.25;5.10;;;29.00;42.40;;;;;;6312050;28;20464;-79
2021/07/24 00:37:31;;;;;;;9.55;4.40;;;29.20;41.80;;;;;;6313985;28;20049;-79
2021/07/24 00:40:36;;;;;;;7.75;4.30;;;29.20;40.70;;;;;;6331589;28;20035;-79
2021/07/24 00:43:38;;;;;;;14.27;3.60;;;29.30;39.90;;;;;;6331085;28;20035;-79
2021/07/24 00:46:39;;;;;;;7.95;3.50;;;29.30;38.60;;;;;;6331453;28;20036;-79
2021/07/24 00:49:43;;;;;;;7.47;3.42;;;29.40;37.30;;;;;;6314638;28;20041;-79
2021/07/24 00:52:44;;;;;;;6.20;3.50;;;29.50;35.20;;;;;;6329894;28;20134;-79
2021/07/24 00:55:45;;;;;;;5.82;3.20;;;29.60;34.20;;;;;;6348791;28;20038;-79
2021/07/24 00:58:46;;;;;;;7.35;3.47;;;29.70;33.40;;;;;;6331275;28;20581;-79
2021/07/24 01:01:47;;;;;;;5.75;2.50;;;29.80;33.10;;;;;;6330154;28;20031;-79
2021/07/24 01:04:48;;;;;;;9.57;3.67;;;29.90;32.70;;;;;;6331066;28;20077;-79
2021/07/24 01:07:50;;;;;;;7.20;3.30;;;29.90;33.00;;;;;;6330626;28;20050;-78
2021/07/24 01:10:52;;;;;;;10.35;3.33;;;30.00;32.80;;;;;;6330905;28;20417;-79
2021/07/24 01:13:54;;;;;;;14.98;3.42;;;29.90;32.40;;;;;;6330415;28;20028;-79
2021/07/24 01:16:56;;;;;;;9.02;2.88;;;29.90;33.10;;;;;;6314388;28;20041;-80
2021/07/24 01:20:04;;;;;;;9.80;3.30;;;29.70;34.00;;;;;;6295194;28;20119;-80
2021/07/24 01:23:12;;;;;;;8.75;3.17;;;29.60;34.60;;;;;;6331163;28;20467;-80
2021/07/24 01:26:21;;;;;;;8.00;2.88;;;29.40;35.20;;;;;;6335706;28;20055;-80
2021/07/24 01:29:23;;;;;;;4.82;2.70;;;29.20;36.10;;;;;;6335438;28;20043;-80
2021/07/24 01:32:29;;;;;;;7.68;2.70;;;29.00;35.90;;;;;;6334439;28;20039;-80
2021/07/24 01:35:31;;;;;;;8.93;3.03;;;28.90;36.60;;;;;;6335544;28;20063;-81
2021/07/24 01:38:38;;;;;;;11.07;2.75;;;28.70;36.90;;;;;;6335324;28;20414;-80
2021/07/24 01:41:44;;;;;;;6.93;2.33;;;28.60;36.90;;;;;;6335404;28;20114;-81
2021/07/24 01:44:46;;;;;;;6.88;2.38;;;28.50;37.20;;;;;;6317570;28;20356;-81
2021/07/24 01:47:50;;;;;;;8.40;2.58;;;28.50;37.60;;;;;;6318743;28;20083;-81
2021/07/24 01:54:22;;;;;;;7.45;2.65;;;28.40;37.70;;;;;;6331091;28;20100;-81
2021/07/24 01:57:25;;;;;;;4.10;2.42;;;28.30;37.50;;;;;;6335516;28;20039;-82
2021/07/24 02:00:38;;;;;;;8.10;2.72;;;28.40;37.60;;;;;;6327964;28;20036;-82
2021/07/24 02:04:09;;;;;;;5.22;2.50;;;28.30;37.70;;;;;;6319918;28;20043;-82
2021/07/24 02:07:21;;;;;;;5.63;2.35;;;28.20;37.90;;;;;;6332048;28;20047;-83
2021/07/24 02:10:33;;;;;;;6.95;2.80;;;28.20;37.70;;;;;;6335144;28;20036;-82
2021/07/24 02:13:36;;;;;;;4.50;2.10;;;28.20;37.60;;;;;;6315779;28;20123;-82
2021/07/24 02:16:40;;;;;;;12.18;2.45;;;28.20;36.80;;;;;;6352989;28;20120;-82
2021/07/24 02:19:44;;;;;;;13.95;2.95;;;28.30;36.50;;;;;;6335751;28;20039;-82
2021/07/24 02:22:45;;;;;;;7.63;2.50;;;28.30;36.50;;;;;;6363525;28;20077;-82
2021/07/24 02:25:47;;;;;;;3.72;2.20;;;28.30;37.30;;;;;;6356389;28;20058;-82
2021/07/24 02:28:50;;;;;;;5.85;2.67;;;28.30;37.00;;;;;;6345161;28;20024;-82
2021/07/24 02:31:55;;;;;;;8.55;2.83;;;28.30;37.10;;;;;;6313016;28;20036;-82
2021/07/24 02:34:58;;;;;;;7.13;2.75;;;28.30;37.20;;;;;;6319503;28;20028;-82
2021/07/24 02:38:00;;;;;;;8.65;2.17;;;28.30;37.20;;;;;;6317178;28;20028;-82
2021/07/24 02:41:04;;;;;;;4.63;2.17;;;28.30;37.10;;;;;;6335230;28;20370;-83
2021/07/24 02:44:08;;;;;;;4.47;2.47;;;28.30;37.00;;;;;;6333961;28;20028;-83
2021/07/24 02:47:09;;;;;;;8.18;2.85;;;28.30;36.80;;;;;;6317502;28;20530;-82
2021/07/24 02:50:13;;;;;;;12.73;5.75;;;28.30;37.10;;;;;;6317564;28;20032;-82
2021/07/24 02:53:14;;;;;;;15.60;5.03;;;28.30;38.80;;;;;;6332722;28;20044;-82
2021/07/24 02:56:15;;;;;;;18.20;5.40;;;28.20;40.30;;;;;;6316777;28;20038;-82
2021/07/24 02:59:16;;;;;;;8.50;5.60;;;28.20;41.60;;;;;;6351577;28;20036;-82
2021/07/24 03:02:18;;;;;;;21.15;6.18;;;28.30;42.20;;;;;;6340254;28;20051;-82
2021/07/24 03:05:19;;;;;;;18.75;6.10;;;28.20;43.10;;;;;;6333804;28;20096;-82
2021/07/24 03:08:20;;;;;;;13.23;6.40;;;28.20;44.10;;;;;;6322375;28;20031;-82
2021/07/24 03:11:21;;;;;;;11.93;6.50;;;28.10;46.10;;;;;;6349971;28;20043;-82
2021/07/24 03:14:22;;;;;;;10.30;4.90;;;27.90;47.20;;;;;;6333415;28;20097;-83
2021/07/24 03:17:26;;;;;;;11.98;4.25;;;27.80;47.30;;;;;;6333275;28;20460;-82
2021/07/24 03:20:27;;;;;;;10.13;4.00;;;27.70;46.60;;;;;;6309268;28;20043;-82
2021/07/24 03:23:28;;;;;;;16.33;5.03;;;27.70;45.90;;;;;;6350908;28;20040;-82
2021/07/24 03:26:29;;;;;;;4.93;3.15;;;27.60;46.10;;;;;;6332733;28;20039;-83
2021/07/24 03:29:30;;;;;;;10.52;3.40;;;27.50;45.70;;;;;;6305987;28;20047;-82
2021/07/24 03:32:31;;;;;;;4.55;2.70;;;27.50;45.50;;;;;;6332320;28;20047;-82
2021/07/24 03:35:34;;;;;;;8.23;2.70;;;27.40;45.10;;;;;;6351334;28;20419;-82
2021/07/24 03:38:35;;;;;;;5.03;2.70;;;27.30;44.90;;;;;;6349306;28;20043;-82
2021/07/24 03:41:36;;;;;;;17.58;3.67;;;27.20;44.80;;;;;;6332609;28;20096;-83
2021/07/24 03:44:37;;;;;;;6.95;3.30;;;27.10;45.10;;;;;;6313538;28;20035;-83
2021/07/24 03:47:39;;;;;;;7.15;2.83;;;27.10;45.70;;;;;;6331965;28;20104;-83
2021/07/24 03:50:44;;;;;;;9.57;3.20;;;27.00;45.80;;;;;;6349966;28;20063;-83
2021/07/24 03:53:45;;;;;;;10.73;3.58;;;26.90;45.40;;;;;;6346618;28;20032;-83
2021/07/24 03:56:46;;;;;;;8.00;3.13;;;26.80;45.50;;;;;;6329914;28;20032;-83
2021/07/24 03:59:47;;;;;;;5.60;2.90;;;26.80;45.80;;;;;;6332685;28;20128;-82
2021/07/24 04:02:48;;;;;;;22.33;3.25;;;26.80;46.10;;;;;;6315471;28;20032;-82
2021/07/24 04:05:52;;;;;;;7.45;3.00;;;26.70;46.20;;;;;;6348792;28;20107;-81
2021/07/24 04:08:56;;;;;;;8.77;3.13;;;26.60;46.30;;;;;;6330376;28;20039;-81
2021/07/24 04:11:57;;;;;;;4.40;2.83;;;26.50;46.60;;;;;;6349496;28;20369;-82
2021/07/24 04:14:59;;;;;;;6.53;2.95;;;26.50;46.80;;;;;;6331846;28;20040;-82
2021/07/24 04:18:00;;;;;;;11.45;3.25;;;26.50;46.70;;;;;;6332033;28;20040;-82
2021/07/24 04:21:02;;;;;;;6.03;2.90;;;26.50;46.30;;;;;;6330882;28;20032;-83
2021/07/24 04:24:03;;;;;;;6.70;2.97;;;26.50;46.30;;;;;;6348938;28;20032;-82
2021/07/24 04:27:06;;;;;;;9.82;3.35;;;26.50;46.10;;;;;;6304216;28;20458;-82
2021/07/24 04:30:08;;;;;;;11.10;3.75;;;26.50;46.50;;;;;;6314684;28;20031;-83
2021/07/24 04:33:09;;;;;;;7.68;3.90;;;26.40;46.80;;;;;;6331141;28;20484;-82
2021/07/24 04:36:13;;;;;;;6.60;3.40;;;26.40;46.70;;;;;;6313681;28;20035;-82
2021/07/24 04:39:14;;;;;;;7.15;3.20;;;26.30;47.40;;;;;;6348989;28;20051;-83
2021/07/24 04:42:15;;;;;;;9.63;2.97;;;26.40;47.30;;;;;;6349423;28;20039;-83
2021/07/24 04:45:16;;;;;;;9.52;3.55;;;26.40;46.80;;;;;;6312933;28;20035;-82
2021/07/24 04:48:17;;;;;;;9.60;3.72;;;26.40;46.60;;;;;;6331294;28;20036;-82
2021/07/24 04:51:19;;;;;;;10.18;3.70;;;26.40;46.80;;;;;;6349304;28;20039;-83
2021/07/24 04:54:20;;;;;;;10.10;4.68;;;26.50;47.30;;;;;;6313768;28;20096;-82
2021/07/24 04:57:22;;;;;;;12.15;4.50;;;26.50;48.00;;;;;;6342080;28;20048;-82
2021/07/24 05:00:23;;;;;;;10.70;4.38;;;26.50;48.30;;;;;;6348827;28;20073;-82
2021/07/24 05:03:26;;;;;;;8.38;4.00;;;26.50;48.60;;;;;;6313496;28;20042;-82
2021/07/24 05:06:29;;;;;;;11.10;4.45;;;26.50;48.50;;;;;;6330545;28;20066;-82
2021/07/24 05:09:30;;;;;;;6.57;3.78;;;26.50;48.50;;;;;;6330549;28;20118;-83
2021/07/24 05:12:31;;;;;;;9.38;4.47;;;26.50;48.60;;;;;;6314028;28;20043;-82
2021/07/24 05:15:32;;;;;;;16.20;5.97;;;26.50;48.80;;;;;;6349110;28;20055;-83
2021/07/24 05:18:33;;;;;;;10.48;5.38;;;26.50;49.20;;;;;;6331891;28;20035;-83
2021/07/24 05:21:34;;;;;;;10.40;5.60;;;26.50;49.60;;;;;;6331304;28;20384;-82
2021/07/24 05:24:37;;;;;;;14.35;5.65;;;26.50;49.90;;;;;;6313630;28;20048;-82
2021/07/24 05:27:38;;;;;;;14.23;5.60;;;26.60;50.10;;;;;;6330543;28;20093;-82
2021/07/24 05:30:39;;;;;;;10.45;5.63;;;26.60;50.70;;;;;;6348556;28;20372;-82
2021/07/24 05:33:42;;;;;;;9.00;5.15;;;26.60;50.70;;;;;;6330185;28;20028;-82
2021/07/24 05:36:44;;;;;;;12.55;5.20;;;26.60;50.70;;;;;;6348107;28;20024;-82
2021/07/24 05:39:45;;;;;;;13.20;6.03;;;26.60;50.70;;;;;;6330306;28;20023;-82
2021/07/24 05:42:46;;;;;;;16.48;6.32;;;26.70;50.90;;;;;;6330609;28;20031;-81
2021/07/24 05:45:47;;;;;;;13.63;5.68;;;26.70;50.90;;;;;;6348723;28;20036;-81
2021/07/24 05:48:48;;;;;;;12.45;6.13;;;26.70;50.80;;;;;;6313615;28;20038;-80
2021/07/24 05:51:49;;;;;;;12.27;5.78;;;26.80;50.90;;;;;;6330579;28;20132;-81
2021/07/24 05:54:50;;;;;;;9.63;5.32;;;26.90;50.90;;;;;;6347739;28;20084;-80
2021/07/24 05:57:51;;;;;;;17.00;5.90;;;27.00;50.70;;;;;;6330741;28;20237;-80
2021/07/24 06:00:52;;;;;;;13.52;5.80;;;27.00;50.50;;;;;;6348838;28;20027;-81
2021/07/24 06:03:53;;;;;;;11.73;6.00;;;27.10;50.40;;;;;;6329452;28;20032;-80
2021/07/24 06:06:54;;;;;;;12.63;4.95;;;27.20;50.20;;;;;;6331318;28;20028;-81
2021/07/24 06:09:55;;;;;;;31.92;6.00;;;27.20;50.00;;;;;;6350616;28;20027;-80
2021/07/24 06:12:57;;;;;;;10.52;5.32;;;27.20;49.90;;;;;;6335746;28;20444;-80
2021/07/24 06:15:59;;;;;;;10.55;5.60;;;27.30;50.00;;;;;;6336308;28;20027;-81
2021/07/24 06:19:00;;;;;;;8.40;5.30;;;27.40;49.80;;;;;;6355529;28;20059;-82
2021/07/24 06:22:02;;;;;;;10.25;5.25;;;27.50;49.70;;;;;;6340637;28;20036;-83
2021/07/24 06:25:03;;;;;;;10.43;5.53;;;27.60;50.30;;;;;;6343718;28;20047;-85
2021/07/24 06:28:04;;;;;;;11.88;6.10;;;27.70;49.70;;;;;;6359248;28;20038;-81
2021/07/24 06:31:06;;;;;;;13.88;5.72;;;27.80;49.60;;;;;;6341117;28;20085;-83
2021/07/24 06:34:08;;;;;;;15.45;5.82;;;27.80;49.20;;;;;;6358766;28;20092;-81
2021/07/24 06:37:09;;;;;;;10.40;6.22;;;27.90;49.20;;;;;;6353347;28;20088;-82
2021/07/24 06:40:11;;;;;;;9.98;4.45;;;28.00;49.10;;;;;;6347843;28;20036;-81
2021/07/24 06:43:12;;;;;;;8.50;3.50;;;28.00;49.00;;;;;;6311296;28;20040;-81
2021/07/24 06:46:16;;;;;;;7.55;3.50;;;28.00;48.20;;;;;;6371909;28;20035;-81
2021/07/24 06:49:17;;;;;;;6.43;3.63;;;28.00;47.70;;;;;;6356525;28;20040;-80
2021/07/24 06:52:18;;;;;;;9.52;3.10;;;28.00;47.40;;;;;;6364716;28;20089;-80
2021/07/24 06:55:19;;;;;;;5.72;3.00;;;28.10;46.90;;;;;;6355786;28;20152;-78
2021/07/24 06:58:20;;;;;;;6.25;3.17;;;28.10;46.30;;;;;;6340781;28;20092;-78
2021/07/24 07:01:21;;;;;;;5.57;2.90;;;28.10;46.10;;;;;;6334169;28;20036;-78
2021/07/24 07:04:22;;;;;;;9.05;3.10;;;28.10;45.80;;;;;;6352550;27;20034;-78
2021/07/24 07:07:23;;;;;;;10.38;3.40;;;28.20;45.70;;;;;;6319507;28;20031;-81
2021/07/24 07:10:25;;;;;;;5.45;2.83;;;28.30;45.30;;;;;;6318813;28;20032;-80
2021/07/24 07:13:25;;;;;;;13.35;3.03;;;28.40;44.90;;;;;;6324412;28;20044;-80
2021/07/24 07:16:27;;;;;;;6.93;2.45;;;28.60;44.50;;;;;;6350344;28;20464;-81
2021/07/24 07:19:28;;;;;;;5.53;2.67;;;28.70;44.10;;;;;;6332897;28;20038;-79
2021/07/24 07:22:29;;;;;;;7.03;2.40;;;28.80;43.70;;;;;;6315179;28;20040;-79
2021/07/24 07:25:30;;;;;;;10.13;3.10;;;28.90;43.40;;;;;;6331974;28;20130;-78
2021/07/24 07:28:31;;;;;;;9.82;3.78;;;28.90;42.90;;;;;;6331293;28;20031;-79
2021/07/24 07:31:36;;;;;;;8.55;3.47;;;29.00;43.10;;;;;;6332500;28;20039;-79
2021/07/24 07:34:37;;;;;;;8.50;4.10;;;29.10;43.40;;;;;;6332344;28;20372;-79
2021/07/24 07:37:51;;;;;;;7.43;3.47;;;29.10;43.40;;;;;;6332457;28;20031;-79
2021/07/24 07:40:52;;;;;;;12.20;4.05;;;29.20;43.10;;;;;;6330140;28;20127;-79
2021/07/24 07:43:53;;;;;;;7.38;2.92;;;29.30;43.00;;;;;;6330090;28;20449;-79
2021/07/24 07:46:54;;;;;;;10.82;3.60;;;29.30;42.60;;;;;;6326545;28;20439;-78
2021/07/24 07:49:56;;;;;;;5.30;3.35;;;29.40;42.30;;;;;;6347104;28;20067;-78
2021/07/24 07:52:57;;;;;;;6.38;3.20;;;29.40;42.10;;;;;;6330715;28;20039;-79
2021/07/24 07:55:58;;;;;;;6.97;3.92;;;29.40;42.10;;;;;;6328764;28;20082;-79
2021/07/24 07:58:59;;;;;;;5.88;3.55;;;29.50;42.20;;;;;;6348064;28;20040;-80
2021/07/24 08:02:00;;;;;;;8.40;3.03;;;29.60;42.00;;;;;;6318763;28;20372;-80
2021/07/24 08:05:01;;;;;;;7.68;3.55;;;29.70;41.70;;;;;;6313404;28;20526;-79
2021/07/24 08:08:02;;;;;;;6.38;3.45;;;29.90;41.40;;;;;;6329699;28;20043;-77
2021/07/24 08:11:04;;;;;;;6.20;2.72;;;30.00;41.20;;;;;;6310909;28;20119;-77
2021/07/24 08:14:05;;;;;;;8.38;2.97;;;30.10;41.10;;;;;;6347841;28;20034;-77
2021/07/24 08:17:08;;;;;;;7.45;3.33;;;30.20;40.70;;;;;;6348682;28;20035;-78
2021/07/24 08:20:09;;;;;;;8.23;3.00;;;30.30;40.50;;;;;;6314982;28;20365;-77
2021/07/24 08:23:13;;;;;;;3.72;2.65;;;30.30;40.30;;;;;;6310963;28;20039;-78
2021/07/24 08:26:14;;;;;;;8.95;3.47;;;30.40;40.30;;;;;;6320083;28;20502;-77
2021/07/24 08:29:15;;;;;;;6.28;3.08;;;30.60;39.80;;;;;;6316380;28;20130;-78
2021/07/24 08:32:16;;;;;;;6.25;2.90;;;30.60;39.30;;;;;;6343359;28;20125;-79
2021/07/24 08:35:17;;;;;;;5.80;2.53;;;30.70;39.00;;;;;;6320928;28;20046;-77
2021/07/24 08:38:19;;;;;;;6.07;2.67;;;30.80;38.60;;;;;;6348385;28;20036;-75
2021/07/24 08:41:19;;;;;;;6.05;3.15;;;31.00;38.40;;;;;;6312734;28;20051;-76
2021/07/24 08:44:20;;;;;;;5.05;2.38;;;31.10;38.20;;;;;;6329617;28;20038;-78
2021/07/24 08:47:24;;;;;;;3.70;2.70;;;31.20;38.20;;;;;;6344161;28;20036;-80
2021/07/24 08:50:26;;;;;;;5.72;2.38;;;31.30;38.10;;;;;;6328394;28;20475;-81
2021/07/24 08:53:29;;;;;;;4.55;1.85;;;31.50;38.00;;;;;;6309886;28;20482;-79
2021/07/24 08:56:36;;;;;;;5.15;2.67;;;31.70;37.70;;;;;;6311280;28;20055;-80
2021/07/24 08:59:37;;;;;;;2.72;1.92;;;31.70;37.80;;;;;;6328238;28;20085;-82
2021/07/24 09:02:40;;;;;;;3.92;2.03;;;31.70;37.80;;;;;;6311319;28;20074;-79
2021/07/24 09:05:43;;;;;;;3.67;1.95;;;31.80;37.70;;;;;;6325444;28;20341;-79
2021/07/24 09:08:45;;;;;;;6.68;2.50;;;31.90;37.70;;;;;;6345933;28;20027;-79
2021/07/24 09:11:49;;;;;;;6.80;2.30;;;32.10;37.60;;;;;;6312551;28;20050;-79
2021/07/24 09:14:50;;;;;;;10.60;2.55;;;32.20;37.20;;;;;;6312765;28;20431;-78
2021/07/24 09:17:55;;;;;;;6.65;2.10;;;32.40;37.00;;;;;;6327008;28;20100;-79
2021/07/24 09:20:57;;;;;;;2.95;1.88;;;32.60;36.70;;;;;;6327129;28;20036;-79
2021/07/24 09:24:19;;;;;;;5.28;2.05;;;32.70;36.20;;;;;;6328669;28;20096;-79
2021/07/24 09:27:24;;;;;;;6.45;2.30;;;32.80;36.00;;;;;;6324892;28;20043;-79
2021/07/24 09:30:27;;;;;;;7.30;2.45;;;32.90;35.60;;;;;;6327707;28;20441;-79
2021/07/24 09:33:28;;;;;;;2.83;2.33;;;33.10;35.30;;;;;;6311123;28;20179;-79
2021/07/24 09:36:36;;;;;;;3.88;2.28;;;33.10;34.70;;;;;;6311056;28;20120;-80
2021/07/24 09:39:37;;;;;;;6.60;2.80;;;33.20;34.50;;;;;;6308655;28;20124;-80
2021/07/24 09:42:38;;;;;;;2.97;2.15;;;33.20;34.40;;;;;;6328984;28;20047;-79
2021/07/24 09:45:39;;;;;;;2.30;1.95;;;33.20;34.30;;;;;;6332739;28;20043;-79
2021/07/24 09:49:13;;;;;;;4.00;2.60;;;33.30;34.20;;;;;;6336168;28;20035;-79
2021/07/24 09:52:14;;;;;;;6.03;2.30;;;33.30;34.00;;;;;;6345126;28;20518;-79
2021/07/24 09:55:17;;;;;;;5.13;2.50;;;33.30;33.80;;;;;;6333026;28;20469;-78
2021/07/24 09:58:20;;;;;;;13.40;2.40;;;33.20;33.80;;;;;;6352114;28;20421;-82
2021/07/24 10:01:21;;;;;;;7.38;2.35;;;33.20;33.50;;;;;;6304607;28;20039;-80
2021/07/24 10:04:30;;;;;;;2.42;2.05;;;33.20;33.60;;;;;;6331410;28;20042;-79
2021/07/24 10:07:32;;;;;;;3.70;2.13;;;33.00;33.80;;;;;;6324333;28;20031;-79
2021/07/24 10:10:38;;;;;;;6.13;2.40;;;33.00;34.00;;;;;;6351187;28;20028;-79
2021/07/24 10:13:40;;;;;;;4.97;2.60;;;33.00;33.90;;;;;;6334441;28;20486;-80
2021/07/24 10:16:41;;;;;;;7.22;2.55;;;33.10;33.90;;;;;;6352522;28;20171;-79
2021/07/24 10:19:43;;;;;;;5.43;2.67;;;33.10;33.90;;;;;;6334318;28;20028;-80
2021/07/24 10:22:44;;;;;;;3.95;2.25;;;33.20;34.10;;;;;;6352232;28;20032;-79
2021/07/24 10:26:05;;;;;;;3.78;2.45;;;33.20;33.90;;;;;;6334010;28;20046;-80
2021/07/24 10:29:08;;;;;;;6.88;2.70;;;33.20;34.00;;;;;;6332070;28;20352;-80
2021/07/24 10:32:13;;;;;;;5.13;2.78;;;33.30;34.20;;;;;;6342368;28;20042;-80
2021/07/24 10:35:14;;;;;;;4.93;2.80;;;33.30;34.30;;;;;;6348860;28;20040;-80
2021/07/24 10:38:32;;;;;;;4.63;2.75;;;33.30;34.40;;;;;;6314478;28;20047;-80
2021/07/24 10:41:34;;;;;;;5.45;2.50;;;33.30;34.50;;;;;;6328643;28;20023;-79
2021/07/24 10:44:40;;;;;;;6.65;2.55;;;33.20;34.70;;;;;;6307817;28;20393;-80
2021/07/24 10:48:13;;;;;;;10.80;2.58;;;33.10;34.90;;;;;;6347700;28;20127;-79
2021/07/24 10:51:15;;;;;;;3.58;2.25;;;33.10;35.10;;;;;;6341709;28;20057;-80
2021/07/24 10:54:16;;;;;;;4.95;2.55;;;33.10;35.10;;;;;;6327563;28;20047;-79
2021/07/24 10:57:55;;;;;;;3.22;2.40;;;33.20;35.00;;;;;;6328865;28;20048;-80
2021/07/24 11:01:02;;;;;;;3.77;2.60;;;33.30;35.00;;;;;;6328627;28;20062;-81
2021/07/24 11:04:32;;;;;;;11.82;3.05;;;33.40;34.70;;;;;;6329937;28;20322;-80
2021/07/24 11:07:46;;;;;;;4.18;2.85;;;33.50;34.20;;;;;;6337967;28;20065;-80
2021/07/24 11:11:08;;;;;;;5.25;2.83;;;34.20;33.40;;;;;;6337067;28;20052;-81
2021/07/24 11:14:34;;;;;;;7.53;2.92;;;35.00;32.60;;;;;;6312091;28;20023;-81
2021/07/24 11:17:36;;;;;;;9.63;2.70;;;35.60;31.60;;;;;;6310249;28;20040;-81
2021/07/24 11:20:46;;;;;;;4.45;2.60;;;36.30;30.80;;;;;;6300993;28;20024;-81
2021/07/24 11:24:12;;;;;;;4.05;2.28;;;36.70;30.10;;;;;;6324798;28;20040;-81
2021/07/24 11:27:15;;;;;;;8.80;2.55;;;36.80;29.80;;;;;;6344499;28;20051;-80
2021/07/24 11:30:21;;;;;;;3.70;2.25;;;36.70;29.70;;;;;;6308381;28;20039;-79
2021/07/24 11:33:27;;;;;;;5.35;2.67;;;36.40;29.90;;;;;;6332953;28;20055;-80
2021/07/24 11:36:28;;;;;;;4.13;2.42;;;36.10;30.30;;;;;;6329592;28;20044;-80
2021/07/24 11:39:31;;;;;;;6.03;2.20;;;35.80;30.60;;;;;;6308183;28;20036;-79
2021/07/24 11:42:32;;;;;;;5.65;2.78;;;35.70;30.60;;;;;;6309417;28;20035;-78
2021/07/24 11:45:35;;;;;;;5.90;2.75;;;35.40;31.00;;;;;;6325310;28;20376;-78
2021/07/24 11:48:38;;;;;;;7.82;2.78;;;35.00;31.50;;;;;;6343769;28;20369;-79
2021/07/24 11:51:39;;;;;;;6.50;2.60;;;34.80;31.90;;;;;;6312617;28;20043;-79
2021/07/24 11:54:40;;;;;;;5.10;2.70;;;34.70;32.00;;;;;;6327656;28;20036;-81
2021/07/24 11:57:42;;;;;;;7.63;2.53;;;34.70;32.00;;;;;;6312560;28;20044;-80
2021/07/24 12:00:50;;;;;;;4.15;2.55;;;34.70;31.90;;;;;;6336667;28;20054;-79
2021/07/24 12:04:08;;;;;;;5.63;2.63;;;34.70;31.70;;;;;;6321193;28;20043;-81
2021/07/24 12:07:09;;;;;;;4.18;2.75;;;34.80;31.30;;;;;;6328538;28;20035;-80
2021/07/24 12:10:11;;;;;;;4.38;2.70;;;35.00;31.00;;;;;;6328645;28;20440;-80
2021/07/24 12:13:17;;;;;;;2.47;2.20;;;35.10;30.80;;;;;;6310745;28;20142;-79
2021/07/24 12:16:18;;;;;;;3.58;2.15;;;35.30;30.40;;;;;;6346585;28;20035;-79
2021/07/24 12:19:20;;;;;;;7.78;2.95;;;35.60;30.00;;;;;;6314777;28;20342;-80
2021/07/24 12:22:24;;;;;;;2.88;2.40;;;36.00;29.60;;;;;;6323064;28;20042;-81
2021/07/24 12:25:25;;;;;;;8.15;2.70;;;36.30;29.10;;;;;;6320457;28;20469;-80
2021/07/24 12:28:29;;;;;;;6.90;2.42;;;36.50;28.90;;;;;;6319591;28;20032;-81
2021/07/24 12:31:33;;;;;;;5.68;2.55;;;36.70;28.60;;;;;;6312503;28;20097;-81
2021/07/24 12:34:36;;;;;;;3.55;2.47;;;37.00;28.30;;;;;;6326677;28;20087;-80
2021/07/24 12:37:37;;;;;;;4.95;2.15;;;37.20;28.10;;;;;;6324969;28;20036;-82
2021/07/24 12:40:38;;;;;;;5.47;2.70;;;37.20;28.10;;;;;;6341631;28;20016;-82
2021/07/24 12:43:43;;;;;;;5.55;2.80;;;36.80;28.30;;;;;;6324295;28;20463;-81
2021/07/24 12:47:12;;;;;;;6.50;2.63;;;36.70;28.60;;;;;;6303041;28;20046;-81
2021/07/24 12:50:16;;;;;;;10.13;2.72;;;36.60;28.40;;;;;;6313936;28;20068;-88
2021/07/24 12:53:19;;;;;;;9.82;2.60;;;36.60;28.40;;;;;;6321710;28;20092;-79
2021/07/24 12:56:20;;;;;;;6.85;2.72;;;36.60;28.60;;;;;;6318473;28;20115;-80
2021/07/24 12:59:21;;;;;;;5.70;2.83;;;36.50;28.60;;;;;;6316953;28;20036;-80
2021/07/24 13:02:22;;;;;;;3.95;2.80;;;36.80;28.40;;;;;;6299504;28;20051;-79
2021/07/24 13:05:24;;;;;;;7.25;2.50;;;37.30;27.80;;;;;;6318705;28;20047;-80
2021/07/24 13:08:24;;;;;;;6.22;2.50;;;37.60;27.40;;;;;;6342865;28;20050;-82
2021/07/24 13:11:26;;;;;;;2.97;2.28;;;37.90;27.10;;;;;;6345973;28;20032;-81
2021/07/24 13:14:27;;;;;;;9.38;3.00;;;38.10;26.90;;;;;;6326829;28;20032;-79
2021/07/24 13:17:27;;;;;;;5.25;2.45;;;38.20;26.60;;;;;;6310712;28;20414;-79
2021/07/24 13:20:28;;;;;;;7.78;2.83;;;38.30;26.50;;;;;;6330187;28;20080;-81
2021/07/24 13:23:30;;;;;;;6.70;2.55;;;38.30;26.60;;;;;;6307208;28;20036;-79
2021/07/24 13:29:54;;;;;;;4.47;2.95;;;38.40;26.50;;;;;;6324391;28;20101;-80
2021/07/24 13:32:55;;;;;;;2.85;2.40;;;38.90;25.90;;;;;;6326470;28;20368;-79
2021/07/24 13:35:56;;;;;;;6.57;2.70;;;38.90;25.90;;;;;;6325469;28;20047;-79
2021/07/24 13:38:57;;;;;;;3.70;2.80;;;38.80;25.80;;;;;;6324497;28;20036;-79
2021/07/24 13:41:58;;;;;;;3.08;2.40;;;38.60;25.90;;;;;;6324351;28;20369;-80
2021/07/24 13:44:59;;;;;;;3.17;2.20;;;38.50;25.90;;;;;;6297761;28;20066;-80
2021/07/24 13:48:00;;;;;;;5.38;2.70;;;38.80;25.80;;;;;;6314024;28;20031;-80
2021/07/24 13:51:02;;;;;;;8.90;2.78;;;39.20;25.40;;;;;;6321958;28;20047;-79
2021/07/24 13:54:03;;;;;;;6.15;2.80;;;39.10;25.30;;;;;;6322687;28;20457;-79
2021/07/24 13:57:04;;;;;;;6.65;2.67;;;38.70;25.80;;;;;;6320462;28;20048;-78
2021/07/24 14:00:06;;;;;;;7.85;2.58;;;38.50;26.00;;;;;;6295633;28;20024;-79
2021/07/24 14:03:14;;;;;;;4.60;2.28;;;38.30;26.10;;;;;;6319491;28;20054;-79
2021/07/24 14:06:16;;;;;;;4.85;2.70;;;37.80;26.50;;;;;;6324787;28;20036;-79
2021/07/24 14:09:18;;;;;;;12.25;3.13;;;37.50;27.00;;;;;;6322537;28;20031;-79
2021/07/24 14:12:19;;;;;;;4.30;3.17;;;37.70;26.80;;;;;;6322289;28;20063;-78
2021/07/24 14:15:21;;;;;;;6.25;2.70;;;37.60;26.90;;;;;;6324182;28;20436;-79
2021/07/24 14:18:27;;;;;;;3.80;2.65;;;37.00;27.20;;;;;;6322317;28;20483;-78
2021/07/24 14:21:28;;;;;;;4.82;2.60;;;37.10;27.40;;;;;;6322559;28;20044;-81
2021/07/24 14:24:29;;;;;;;5.10;2.80;;;37.40;27.10;;;;;;6325615;28;20058;-78
2021/07/24 14:27:29;;;;;;;4.63;2.60;;;37.50;26.90;;;;;;6330033;28;20051;-78
2021/07/24 14:30:32;;;;;;;8.65;2.95;;;37.20;27.30;;;;;;6321249;28;20134;-79
2021/07/24 14:33:34;;;;;;;5.82;2.50;;;36.70;27.70;;;;;;6347728;28;20409;-79
2021/07/24 14:36:35;;;;;;;5.53;2.70;;;36.20;28.30;;;;;;6345978;28;20044;-79
2021/07/24 14:39:37;;;;;;;4.32;2.83;;;35.80;29.00;;;;;;6348295;28;20402;-80
2021/07/24 14:42:38;;;;;;;5.30;2.78;;;35.30;29.50;;;;;;6330426;28;20097;-78
2021/07/24 14:45:39;;;;;;;5.72;2.80;;;35.00;30.00;;;;;;6330698;28;20406;-79
2021/07/24 14:48:40;;;;;;;4.15;2.72;;;34.60;30.40;;;;;;6331884;28;20039;-79
2021/07/24 14:51:41;;;;;;;9.45;2.80;;;34.40;31.00;;;;;;6331828;28;20058;-81
2021/07/24 14:54:42;;;;;;;3.53;2.50;;;34.20;31.60;;;;;;6332208;28;20039;-80
2021/07/24 14:57:43;;;;;;;5.32;2.85;;;33.90;32.20;;;;;;6348599;28;20093;-80
2021/07/24 15:00:44;;;;;;;11.75;2.95;;;33.80;32.70;;;;;;6332034;28;20111;-80
2021/07/24 15:03:45;;;;;;;4.95;3.22;;;33.50;33.00;;;;;;6330521;28;20045;-80
2021/07/24 15:06:46;;;;;;;6.43;2.83;;;33.40;33.30;;;;;;6315639;28;20040;-80
2021/07/24 15:09:50;;;;;;;11.32;3.25;;;33.30;33.50;;;;;;6311158;28;20356;-81
2021/07/24 15:12:53;;;;;;;5.55;2.80;;;33.30;33.70;;;;;;6313189;28;20050;-81
2021/07/24 15:15:57;;;;;;;8.50;2.97;;;33.30;33.80;;;;;;6348986;28;20356;-79
2021/07/24 15:18:58;;;;;;;6.43;3.00;;;33.40;33.80;;;;;;6317181;28;20475;-80
2021/07/24 15:21:59;;;;;;;7.22;3.10;;;33.50;33.60;;;;;;6330724;28;20043;-79
2021/07/24 15:25:01;;;;;;;7.72;2.88;;;33.70;33.50;;;;;;6347451;28;20051;-79
2021/07/24 15:28:03;;;;;;;5.10;3.33;;;34.00;33.10;;;;;;6327292;28;20119;-79
2021/07/24 15:31:04;;;;;;;4.38;2.92;;;34.60;32.20;;;;;;6331144;28;20074;-80
2021/07/24 15:34:05;;;;;;;6.90;2.67;;;34.90;31.70;;;;;;6321818;28;20036;-78
2021/07/24 15:37:07;;;;;;;4.07;3.17;;;35.10;31.40;;;;;;6330624;28;20031;-80
2021/07/24 15:40:09;;;;;;;8.93;3.22;;;35.40;30.90;;;;;;6313457;28;20039;-81
2021/07/24 15:43:10;;;;;;;8.52;3.00;;;35.40;30.80;;;;;;6326758;28;20032;-81
2021/07/24 15:46:11;;;;;;;5.65;3.10;;;35.30;30.90;;;;;;6313764;28;20088;-81
2021/07/24 15:49:12;;;;;;;4.00;2.70;;;35.40;30.70;;;;;;6330558;28;20563;-79
2021/07/24 15:52:13;;;;;;;6.03;3.00;;;35.50;30.60;;;;;;6312366;28;20044;-80
2021/07/24 15:55:14;;;;;;;6.50;3.35;;;35.70;30.20;;;;;;6329967;28;20172;-79
2021/07/24 15:58:15;;;;;;;4.47;3.17;;;36.40;29.70;;;;;;6347380;28;20157;-82